createdAt,value
2018-02-10T00:01:25.096Z,32.90
2018-02-10T00:03:51.297Z,34.70
2018-02-10T00:06:18.251Z,34.33
2018-02-10T00:08:44.477Z,33.10
2018-02-10T00:11:10.894Z,31.47
2018-02-10T00:13:37.071Z,32.67
2018-02-10T00:16:03.326Z,32.53
2018-02-10T00:18:30.359Z,32.00
2018-02-10T00:20:56.616Z,35.50
2018-02-10T00:23:23.582Z,34.83
2018-02-10T00:25:49.811Z,33.20
2018-02-10T00:28:16.015Z,33.30
2018-02-10T00:31:00.301Z,33.13
2018-02-10T00:33:26.477Z,32.60
2018-02-10T00:35:52.680Z,33.90
2018-02-10T00:38:19.572Z,33.47
2018-02-10T00:40:45.886Z,31.57
2018-02-10T00:43:12.123Z,32.13
2018-02-10T00:45:38.338Z,36.30
2018-02-10T00:48:04.540Z,34.50
2018-02-10T00:50:31.491Z,32.93
2018-02-10T00:52:57.745Z,33.63
2018-02-10T00:55:24.732Z,31.40
2018-02-10T00:57:50.954Z,28.33
2018-02-10T01:00:17.151Z,31.97
2018-02-10T01:02:43.541Z,34.53
2018-02-10T01:05:09.802Z,32.47
2018-02-10T01:07:36.031Z,32.00
2018-02-10T01:10:02.465Z,32.27
2018-02-10T01:12:29.466Z,30.47
2018-02-10T01:14:55.659Z,32.10
2018-02-10T01:17:21.857Z,33.20
2018-02-10T01:19:48.144Z,31.83
2018-02-10T01:22:14.387Z,30.40
2018-02-10T01:24:40.659Z,28.13
2018-02-10T01:27:07.052Z,32.00
2018-02-10T01:29:33.996Z,32.90
2018-02-10T01:32:00.200Z,32.00
2018-02-10T01:34:26.621Z,31.40
2018-02-10T01:36:52.816Z,30.80
2018-02-10T01:39:19.094Z,32.63
2018-02-10T01:41:46.316Z,33.23
2018-02-10T01:44:12.820Z,31.10
2018-02-10T01:46:39.032Z,30.53
2018-02-10T01:49:05.280Z,32.50
2018-02-10T01:51:31.659Z,31.53
2018-02-10T01:53:57.866Z,32.37
2018-02-10T01:56:24.833Z,34.17
2018-02-10T01:58:51.248Z,32.13
2018-02-10T02:01:17.492Z,32.00
2018-02-10T02:03:43.728Z,32.70
2018-02-10T02:06:10.218Z,33.27
2018-02-10T02:08:36.437Z,33.60
2018-02-10T02:11:03.484Z,32.73
2018-02-10T02:13:30.469Z,29.27
2018-02-10T02:15:56.725Z,32.93
2018-02-10T02:18:22.950Z,32.17
2018-02-10T02:20:49.168Z,32.97
2018-02-10T02:23:15.556Z,35.43
2018-02-10T02:25:41.934Z,34.20
2018-02-10T02:28:08.166Z,33.50
2018-02-10T02:30:34.635Z,32.03
2018-02-10T02:33:00.861Z,33.93
2018-02-10T02:35:27.111Z,34.00
2018-02-10T02:37:53.553Z,32.00
2018-02-10T02:40:19.773Z,33.70
2018-02-10T02:42:45.966Z,30.83
2018-02-10T02:45:12.301Z,34.33
2018-02-10T02:47:38.476Z,31.70
2018-02-10T02:50:04.704Z,31.70
2018-02-10T02:52:30.972Z,31.93
2018-02-10T02:54:57.207Z,32.10
2018-02-10T02:57:27.260Z,33.73
2018-02-10T02:59:53.463Z,33.30
2018-02-10T03:02:19.682Z,34.70
2018-02-10T03:04:46.812Z,36.20
2018-02-10T03:07:13.031Z,34.27
2018-02-10T03:09:39.245Z,32.50
2018-02-10T03:12:05.471Z,33.20
2018-02-10T03:14:31.698Z,31.47
2018-02-10T03:16:58.020Z,30.57
2018-02-10T03:19:24.250Z,33.13
2018-02-10T03:21:50.580Z,33.00
2018-02-10T03:24:16.768Z,31.90
2018-02-10T03:26:43.045Z,33.63
2018-02-10T03:29:09.434Z,33.90
2018-02-10T03:31:35.624Z,33.03
2018-02-10T03:34:02.852Z,32.53
2018-02-10T03:36:29.846Z,30.47
2018-02-10T03:38:56.108Z,32.80
2018-02-10T03:41:22.288Z,31.80
2018-02-10T03:43:48.535Z,30.30
2018-02-10T03:46:14.814Z,33.13
2018-02-10T03:48:41.098Z,32.90
2018-02-10T03:51:07.326Z,30.27
2018-02-10T03:53:33.709Z,33.07
2018-02-10T03:55:59.945Z,30.37
2018-02-10T03:58:26.150Z,32.93
2018-02-10T04:00:52.391Z,32.50
2018-02-10T04:03:18.580Z,32.00
2018-02-10T04:05:44.860Z,32.30
2018-02-10T04:08:11.196Z,33.93
2018-02-10T04:10:37.423Z,31.33
2018-02-10T04:13:03.668Z,33.33
2018-02-10T04:15:30.090Z,31.53
2018-02-10T04:17:57.076Z,33.77
2018-02-10T04:20:23.304Z,34.47
2018-02-10T04:22:49.732Z,33.13
2018-02-10T04:25:15.937Z,31.20
2018-02-10T04:27:42.164Z,31.00
2018-02-10T04:30:08.600Z,33.47
2018-02-10T04:32:34.832Z,33.57
2018-02-10T04:35:01.087Z,36.33
2018-02-10T04:37:27.357Z,34.30
2018-02-10T04:39:53.620Z,34.40
2018-02-10T04:42:19.917Z,35.10
2018-02-10T04:44:46.316Z,31.97
2018-02-10T04:47:13.061Z,34.20
2018-02-10T04:49:39.248Z,32.90
2018-02-10T04:52:05.488Z,31.57
2018-02-10T04:54:31.825Z,34.23
2018-02-10T04:56:58.030Z,34.03
2018-02-10T04:59:24.202Z,34.20
2018-02-10T05:01:50.683Z,32.97
2018-02-10T05:04:16.872Z,33.70
2018-02-10T05:06:43.084Z,35.83
2018-02-10T05:09:09.483Z,35.37
2018-02-10T05:11:35.720Z,33.70
2018-02-10T05:14:01.964Z,35.50
2018-02-10T05:16:28.405Z,35.40
2018-02-10T05:18:54.612Z,32.53
2018-02-10T05:21:20.822Z,39.97
2018-02-10T05:23:47.207Z,37.60
2018-02-10T05:26:14.242Z,35.83
2018-02-10T05:28:40.509Z,35.57
2018-02-10T05:31:06.728Z,37.13
2018-02-10T05:33:33.090Z,38.20
2018-02-10T05:35:59.337Z,40.80
2018-02-10T05:38:25.597Z,36.70
2018-02-10T05:40:51.872Z,41.50
2018-02-10T05:43:18.115Z,40.63
2018-02-10T05:45:44.325Z,40.60
2018-02-10T05:48:10.747Z,39.60
2018-02-10T05:50:37.040Z,41.93
2018-02-10T05:53:03.244Z,40.53
2018-02-10T05:55:29.638Z,43.50
2018-02-10T05:57:55.885Z,42.57
2018-02-10T06:00:22.133Z,41.50
2018-02-10T06:02:48.606Z,40.70
2018-02-10T06:05:14.838Z,41.63
2018-02-10T06:07:41.018Z,41.67
2018-02-10T06:10:07.493Z,42.93
2018-02-10T06:12:33.717Z,42.00
2018-02-10T06:14:59.931Z,42.20
2018-02-10T06:17:26.394Z,41.13
2018-02-10T06:19:52.624Z,39.83
2018-02-10T06:22:18.849Z,40.23
2018-02-10T06:24:47.463Z,44.03
2018-02-10T06:27:13.836Z,43.77
2018-02-10T06:29:40.032Z,38.73
2018-02-10T06:32:06.328Z,41.93
2018-02-10T06:34:32.788Z,43.73
2018-02-10T06:36:59.028Z,38.50
2018-02-10T06:39:25.454Z,38.07
2018-02-10T06:41:54.156Z,39.23
2018-02-10T06:44:20.560Z,36.63
2018-02-10T06:46:48.945Z,40.43
2018-02-10T06:49:16.280Z,39.20
2018-02-10T06:51:49.996Z,41.00
2018-02-10T06:54:16.324Z,34.97
2018-02-10T06:56:42.990Z,37.73
2018-02-10T06:59:10.100Z,41.17
2018-02-10T07:01:36.537Z,36.60
2018-02-10T07:04:02.900Z,39.03
2018-02-10T07:06:29.377Z,38.70
2018-02-10T07:08:55.752Z,37.60
2018-02-10T07:11:22.664Z,39.73
2018-02-10T07:13:49.129Z,40.00
2018-02-10T07:16:15.590Z,38.73
2018-02-10T07:18:43.675Z,38.07
2018-02-10T07:21:10.077Z,37.73
2018-02-10T07:23:36.281Z,36.73
2018-02-10T07:26:02.521Z,39.07
2018-02-10T07:28:29.481Z,38.10
2018-02-10T07:30:55.688Z,39.40
2018-02-10T07:33:22.141Z,38.17
2018-02-10T07:35:48.388Z,38.00
2018-02-10T07:38:14.635Z,38.33
2018-02-10T07:40:41.088Z,37.77
2018-02-10T07:43:13.237Z,35.80
2018-02-10T07:45:40.127Z,37.33
2018-02-10T07:48:06.396Z,40.83
2018-02-10T07:50:32.568Z,39.17
2018-02-10T07:52:58.770Z,37.57
2018-02-10T07:55:25.268Z,38.87
2018-02-10T07:57:51.495Z,39.00
2018-02-10T08:00:17.705Z,38.63
2018-02-10T08:02:44.155Z,36.73
2018-02-10T08:05:10.420Z,37.00
2018-02-10T08:07:36.648Z,34.80
2018-02-10T08:10:03.026Z,39.23
2018-02-10T08:12:29.231Z,34.60
2018-02-10T08:14:55.527Z,36.80
2018-02-10T08:17:21.805Z,35.20
2018-02-10T08:19:48.005Z,33.23
2018-02-10T08:22:14.328Z,32.80
2018-02-10T08:24:40.992Z,32.57
2018-02-10T08:27:07.215Z,35.30
2018-02-10T08:29:33.432Z,32.50
2018-02-10T08:32:00.553Z,35.80
2018-02-10T08:34:26.974Z,34.77
2018-02-10T08:36:53.173Z,32.20
2018-02-10T08:39:19.367Z,33.57
2018-02-10T08:41:45.698Z,33.03
2018-02-10T08:44:11.948Z,33.40
2018-02-10T08:46:38.144Z,31.33
2018-02-10T08:49:05.259Z,31.40
2018-02-10T08:51:32.951Z,34.27
2018-02-10T08:53:59.153Z,28.87
2018-02-10T08:56:25.361Z,30.80
2018-02-10T08:58:51.653Z,33.03
2018-02-10T09:01:17.833Z,30.77
2018-02-10T09:03:44.060Z,29.60
2018-02-10T09:06:10.391Z,28.47
2018-02-10T09:08:37.358Z,28.87
2018-02-10T09:11:03.669Z,29.43
2018-02-10T09:13:29.967Z,27.40
2018-02-10T09:15:56.155Z,28.57
2018-02-10T09:18:22.336Z,29.13
2018-02-10T09:20:48.690Z,26.63
2018-02-10T09:23:14.875Z,27.40
2018-02-10T09:25:41.143Z,28.20
2018-02-10T09:28:08.100Z,27.47
2018-02-10T09:30:36.045Z,26.13
2018-02-10T09:33:02.415Z,28.47
2018-02-10T09:35:28.796Z,26.13
2018-02-10T09:37:55.058Z,26.67
2018-02-10T09:40:21.351Z,27.50
2018-02-10T09:42:48.305Z,24.60
2018-02-10T09:45:14.511Z,24.50
2018-02-10T09:47:40.858Z,25.10
2018-02-10T09:50:07.066Z,23.83
2018-02-10T09:52:33.252Z,23.97
2018-02-10T09:54:59.575Z,26.80
2018-02-10T09:57:25.876Z,26.67
2018-02-10T09:59:52.058Z,26.73
2018-02-10T10:02:18.476Z,22.93
2018-02-10T10:04:44.724Z,25.87
2018-02-10T10:07:10.940Z,23.80
2018-02-10T10:09:37.372Z,22.13
2018-02-10T10:12:04.597Z,25.93
2018-02-10T10:14:30.794Z,25.13
2018-02-10T10:16:57.012Z,25.83
2018-02-10T10:19:24.175Z,26.13
2018-02-10T10:21:50.464Z,22.57
2018-02-10T10:24:16.833Z,24.57
2018-02-10T10:26:43.104Z,22.90
2018-02-10T10:29:09.316Z,23.50
2018-02-10T10:31:35.581Z,23.23
2018-02-10T10:34:02.096Z,23.63
2018-02-10T10:36:28.318Z,25.10
2018-02-10T10:38:54.541Z,23.70
2018-02-10T10:41:20.944Z,24.60
2018-02-10T10:43:47.216Z,22.23
2018-02-10T10:46:14.164Z,25.83
2018-02-10T10:48:41.093Z,24.97
2018-02-10T10:51:08.179Z,24.57
2018-02-10T10:53:34.404Z,24.67
2018-02-10T10:56:00.636Z,26.50
2018-02-10T10:58:27.167Z,21.67
2018-02-10T11:00:53.392Z,21.57
2018-02-10T11:03:19.586Z,24.13
2018-02-10T11:05:46.032Z,22.93
2018-02-10T11:08:12.264Z,25.43
2018-02-10T11:10:38.496Z,22.87
2018-02-10T11:13:04.684Z,22.70
2018-02-10T11:15:30.927Z,21.07
2018-02-10T11:17:57.140Z,23.97
2018-02-10T11:20:24.091Z,20.83
2018-02-10T11:22:51.065Z,24.40
2018-02-10T11:25:17.248Z,20.53
2018-02-10T11:27:43.533Z,21.17
2018-02-10T11:30:09.923Z,18.13
2018-02-10T11:32:36.128Z,22.80
2018-02-10T11:35:03.089Z,19.30
2018-02-10T11:37:29.308Z,21.77
2018-02-10T11:39:55.775Z,21.13
2018-02-10T11:42:22.729Z,21.73
2018-02-10T11:44:48.909Z,20.13
2018-02-10T11:47:15.201Z,23.07
2018-02-10T11:49:41.493Z,19.77
2018-02-10T11:52:07.668Z,19.73
2018-02-10T11:54:34.112Z,20.77
2018-02-10T11:57:00.301Z,19.50
2018-02-10T11:59:26.546Z,22.20
2018-02-10T12:01:52.884Z,20.83
2018-02-10T12:04:19.150Z,24.50
2018-02-10T12:06:45.369Z,20.73
2018-02-10T12:09:11.627Z,20.67
2018-02-10T12:11:37.816Z,20.00
2018-02-10T12:14:03.999Z,21.60
2018-02-10T12:16:30.266Z,21.13
2018-02-10T12:18:56.504Z,21.57
2018-02-10T12:21:22.728Z,20.23
2018-02-10T12:23:48.994Z,20.50
2018-02-10T12:26:15.260Z,24.00
2018-02-10T12:28:41.457Z,19.70
2018-02-10T12:31:07.653Z,19.77
2018-02-10T12:33:33.910Z,19.83
2018-02-10T12:36:00.855Z,19.40
2018-02-10T12:38:27.087Z,17.30
2018-02-10T12:40:53.401Z,15.83
2018-02-10T12:43:19.710Z,18.50
2018-02-10T12:45:45.905Z,16.50
2018-02-10T12:51:26.096Z,17.60
2018-02-10T12:53:52.482Z,16.53
2018-02-10T12:56:19.659Z,14.90
2018-02-10T12:58:45.860Z,16.20
2018-02-10T13:01:12.054Z,16.80
2018-02-10T13:03:38.346Z,15.70
2018-02-10T13:06:04.612Z,16.27
2018-02-10T13:08:30.856Z,16.87
2018-02-10T13:10:58.076Z,15.30
2018-02-10T13:13:24.296Z,16.07
2018-02-10T13:15:50.501Z,17.17
2018-02-10T13:18:16.829Z,15.70
2018-02-10T13:20:43.796Z,17.53
2018-02-10T13:23:10.788Z,14.87
2018-02-10T13:25:37.088Z,16.07
2018-02-10T13:28:03.580Z,15.17
2018-02-10T13:30:29.824Z,15.17
2018-02-10T13:32:56.024Z,14.40
2018-02-10T13:35:22.706Z,15.07
2018-02-10T13:37:48.907Z,13.73
2018-02-10T13:40:15.153Z,15.00
2018-02-10T13:42:42.127Z,14.53
2018-02-10T13:45:09.213Z,13.07
2018-02-10T13:47:35.600Z,13.30
2018-02-10T13:50:01.824Z,13.20
2018-02-10T13:52:28.363Z,12.07
2018-02-10T13:54:54.565Z,13.57
2018-02-10T13:57:21.515Z,13.47
2018-02-10T13:59:49.018Z,12.60
2018-02-10T14:02:15.344Z,14.20
2018-02-10T14:04:41.871Z,13.33
2018-02-10T14:07:08.836Z,12.47
2018-02-10T14:09:35.811Z,12.60
2018-02-10T14:12:02.158Z,12.07
2018-02-10T14:14:28.348Z,12.17
2018-02-10T14:16:54.716Z,11.60
2018-02-10T14:19:21.081Z,11.13
2018-02-10T14:21:47.284Z,11.90
2018-02-10T14:24:13.604Z,11.30
2018-02-10T14:26:40.069Z,11.30
2018-02-10T14:29:06.320Z,10.53
2018-02-10T14:31:32.624Z,14.07
2018-02-10T14:34:00.121Z,13.03
2018-02-10T14:36:26.275Z,13.00
2018-02-10T14:38:52.505Z,12.83
2018-02-10T14:41:18.714Z,13.63
2018-02-10T14:43:45.034Z,11.70
2018-02-10T14:46:11.243Z,12.67
2018-02-10T14:48:37.470Z,11.80
2018-02-10T14:51:03.695Z,12.43
2018-02-10T14:53:29.897Z,12.60
2018-02-10T14:55:56.112Z,11.87
2018-02-10T14:58:22.336Z,11.03
2018-02-10T15:00:48.521Z,12.17
2018-02-10T15:03:14.733Z,13.70
2018-02-10T15:05:40.942Z,12.93
2018-02-10T15:08:07.153Z,11.83
2018-02-10T15:10:33.372Z,11.10
2018-02-10T15:12:59.712Z,10.93
2018-02-10T15:15:26.655Z,12.50
2018-02-10T15:17:52.947Z,11.40
2018-02-10T15:20:19.416Z,11.53
2018-02-10T15:22:45.684Z,11.53
2018-02-10T15:25:11.921Z,11.03
2018-02-10T15:27:38.289Z,11.47
2018-02-10T15:30:16.779Z,12.97
2018-02-10T15:32:55.096Z,11.80
2018-02-10T15:35:21.293Z,13.27
2018-02-10T15:37:47.631Z,13.70
2018-02-10T15:40:13.816Z,13.00
2018-02-10T15:42:40.009Z,13.77
2018-02-10T15:45:06.399Z,14.13
2018-02-10T15:47:32.632Z,14.40
2018-02-10T15:49:58.882Z,14.33
2018-02-10T15:52:25.136Z,13.97
2018-02-10T15:54:51.333Z,13.10
2018-02-10T15:57:17.616Z,13.50
2018-02-10T15:59:43.877Z,13.20
2018-02-10T16:02:10.068Z,12.03
2018-02-10T16:04:36.340Z,15.00
2018-02-10T16:07:02.644Z,13.60
2018-02-10T16:09:28.909Z,14.20
2018-02-10T16:11:55.122Z,14.00
2018-02-10T16:14:21.323Z,14.10
2018-02-10T16:16:47.586Z,13.93
2018-02-10T16:19:14.520Z,14.53
2018-02-10T16:21:40.784Z,15.00
2018-02-10T16:24:07.327Z,14.17
2018-02-10T16:26:37.325Z,14.20
2018-02-10T16:29:03.798Z,14.67
2018-02-10T16:31:30.066Z,14.33
2018-02-10T16:33:56.245Z,14.03
2018-02-10T16:36:22.555Z,12.80
2018-02-10T16:38:48.844Z,14.37
2018-02-10T16:41:15.032Z,15.50
2018-02-10T16:43:41.370Z,17.60
2018-02-10T16:46:07.549Z,15.73
2018-02-10T16:48:33.776Z,18.57
2018-02-10T16:51:00.077Z,15.60
2018-02-10T16:53:27.040Z,14.33
2018-02-10T16:55:53.964Z,15.40
2018-02-10T16:58:20.391Z,13.73
2018-02-10T17:00:46.599Z,15.53
2018-02-10T17:03:12.820Z,16.27
2018-02-10T17:05:39.995Z,14.00
2018-02-10T17:08:06.746Z,16.37
2018-02-10T17:10:33.672Z,14.53
2018-02-10T17:12:59.911Z,15.73
2018-02-10T17:15:26.097Z,15.63
2018-02-10T17:17:52.282Z,15.30
2018-02-10T17:20:18.478Z,14.37
2018-02-10T17:22:44.787Z,17.10
2018-02-10T17:25:10.992Z,15.90
2018-02-10T17:27:37.152Z,15.40
2018-02-10T17:30:03.625Z,16.33
2018-02-10T17:32:30.680Z,15.83
2018-02-10T17:34:57.644Z,17.37
2018-02-10T17:37:24.564Z,16.70
2018-02-10T17:39:50.887Z,16.57
2018-02-10T17:42:17.052Z,17.27
2018-02-10T17:44:43.365Z,15.77
2018-02-10T17:47:09.584Z,17.53
2018-02-10T17:49:35.800Z,14.77
2018-02-10T17:52:01.987Z,15.73
2018-02-10T17:54:28.215Z,16.70
2018-02-10T17:56:54.421Z,16.93
2018-02-10T17:59:20.650Z,17.57
2018-02-10T18:01:46.975Z,16.27
2018-02-10T18:04:13.167Z,17.20
2018-02-10T18:06:39.453Z,18.63
2018-02-10T18:09:05.829Z,17.10
2018-02-10T18:11:32.988Z,17.80
2018-02-10T18:13:59.933Z,15.97
2018-02-10T18:16:26.121Z,18.77
2018-02-10T18:18:53.182Z,16.73
2018-02-10T18:21:19.516Z,15.13
2018-02-10T18:23:45.763Z,16.40
2018-02-10T18:26:11.935Z,16.83
2018-02-10T18:28:38.296Z,17.40
2018-02-10T18:31:04.463Z,17.33
2018-02-10T18:33:31.376Z,17.60
2018-02-10T18:35:57.671Z,19.00
2018-02-10T18:38:24.587Z,18.17
2018-02-10T18:40:50.934Z,17.97
2018-02-10T18:43:17.140Z,17.50
2018-02-10T18:45:43.329Z,17.20
2018-02-10T18:48:09.528Z,16.27
2018-02-10T18:50:35.727Z,17.07
2018-02-10T18:53:01.934Z,16.30
2018-02-10T18:55:28.123Z,19.30
2018-02-10T18:57:55.070Z,19.10
2018-02-10T19:00:22.292Z,16.80
2018-02-10T19:02:48.488Z,19.37
2018-02-10T19:05:15.598Z,18.20
2018-02-10T19:07:41.976Z,17.83
2018-02-10T19:10:09.108Z,17.77
2018-02-10T19:12:35.326Z,18.23
2018-02-10T19:15:02.766Z,17.60
2018-02-10T19:17:29.373Z,19.87
2018-02-10T19:19:55.687Z,18.37
2018-02-10T19:22:21.979Z,17.70
2018-02-10T19:24:48.260Z,19.23
2018-02-10T19:27:14.728Z,17.63
2018-02-10T19:29:44.480Z,18.60
2018-02-10T19:32:10.698Z,20.33
2018-02-10T19:34:37.955Z,18.43
2018-02-10T19:37:04.162Z,18.20
2018-02-10T19:39:30.742Z,20.00
2018-02-10T19:41:58.094Z,20.90
2018-02-10T19:44:24.327Z,19.00
2018-02-10T19:46:50.528Z,18.27
2018-02-10T19:49:16.791Z,17.73
2018-02-10T19:51:43.120Z,18.90
2018-02-10T19:54:09.395Z,18.73
2018-02-10T19:56:35.863Z,21.57
2018-02-10T19:59:02.156Z,18.97
2018-02-10T20:01:29.556Z,20.87
2018-02-10T20:03:55.848Z,20.13
2018-02-10T20:06:22.151Z,18.83
2018-02-10T20:08:48.400Z,20.10
2018-02-10T20:11:14.817Z,21.13
2018-02-10T20:13:41.125Z,22.27
2018-02-10T20:16:07.370Z,20.20
2018-02-10T20:18:33.639Z,20.70
2018-02-10T20:20:59.971Z,21.70
2018-02-10T20:23:26.145Z,26.57
2018-02-10T20:25:52.540Z,23.87
2018-02-10T20:28:20.023Z,21.97
2018-02-10T20:30:46.288Z,23.43
2018-02-10T20:33:12.483Z,25.57
2018-02-10T20:35:38.739Z,21.67
2018-02-10T20:38:04.944Z,23.23
2018-02-10T20:40:31.199Z,22.90
2018-02-10T20:42:57.740Z,24.17
2018-02-10T20:45:23.940Z,25.73
2018-02-10T20:47:50.197Z,27.77
2018-02-10T20:50:17.049Z,24.40
2018-02-10T20:52:43.286Z,23.27
2018-02-10T20:55:09.548Z,23.80
2018-02-10T20:57:35.759Z,25.87
2018-02-10T21:00:02.016Z,24.53
2018-02-10T21:02:28.308Z,25.70
2018-02-10T21:04:54.501Z,23.00
2018-02-10T21:07:20.972Z,24.27
2018-02-10T21:09:47.235Z,23.00
2018-02-10T21:12:13.468Z,24.47
2018-02-10T21:14:39.812Z,24.63
2018-02-10T21:17:05.998Z,21.83
2018-02-10T21:19:32.265Z,24.60
2018-02-10T21:21:58.728Z,24.13
2018-02-10T21:24:24.981Z,24.67
2018-02-10T21:29:57.840Z,23.80
2018-02-10T21:32:24.064Z,23.17
2018-02-10T21:34:50.305Z,26.73
2018-02-10T21:37:16.572Z,23.67
2018-02-10T21:39:43.549Z,25.20
2018-02-10T21:42:09.786Z,26.00
2018-02-10T21:44:36.083Z,23.50
2018-02-10T21:47:02.321Z,25.10
2018-02-10T21:49:28.545Z,25.43
2018-02-10T21:51:54.833Z,24.03
2018-02-10T21:54:21.068Z,25.90
2018-02-10T21:56:48.038Z,26.33
2018-02-10T21:59:14.516Z,25.10
2018-02-10T22:01:40.940Z,27.87
2018-02-10T22:04:07.348Z,26.37
2018-02-10T22:06:33.659Z,28.03
2018-02-10T22:08:59.908Z,25.77
2018-02-10T22:11:26.129Z,29.13
2018-02-10T22:13:52.401Z,27.40
2018-02-10T22:16:18.612Z,26.53
2018-02-10T22:18:44.864Z,26.47
2018-02-10T22:21:11.196Z,27.23
2018-02-10T22:23:37.433Z,26.23
2018-02-10T22:26:03.744Z,25.20
2018-02-10T22:28:30.036Z,27.20
2018-02-10T22:30:56.292Z,24.57
2018-02-10T22:33:22.486Z,26.00
2018-02-10T22:35:48.713Z,23.20
2018-02-10T22:38:15.803Z,22.00
2018-02-10T22:40:42.067Z,21.10
2018-02-10T22:43:08.284Z,20.87
2018-02-10T22:45:34.789Z,20.90
2018-02-10T22:48:01.047Z,20.80
2018-02-10T22:50:27.285Z,20.20
2018-02-10T22:52:54.238Z,21.63
2018-02-10T22:55:20.500Z,21.63
2018-02-10T22:57:46.796Z,19.67
2018-02-10T23:00:13.252Z,20.93
2018-02-10T23:02:39.616Z,23.53
2018-02-10T23:05:06.592Z,24.03
2018-02-10T23:07:32.824Z,22.47
2018-02-10T23:09:59.946Z,22.30
2018-02-10T23:12:26.165Z,22.27
2018-02-10T23:14:53.432Z,22.87
2018-02-10T23:17:24.082Z,21.00
2018-02-10T23:19:57.341Z,21.13
2018-02-10T23:22:23.558Z,21.90
2018-02-10T23:25:00.045Z,20.70
2018-02-10T23:27:27.074Z,20.07
2018-02-10T23:29:53.288Z,18.03
2018-02-10T23:32:19.477Z,16.90
2018-02-10T23:34:45.726Z,18.60
2018-02-10T23:37:11.965Z,18.53
2018-02-10T23:39:38.166Z,18.55
2018-02-10T23:42:04.432Z,16.87
2018-02-10T23:44:30.720Z,16.67
2018-02-10T23:49:56.040Z,14.57
2018-02-10T23:52:22.318Z,14.80
2018-02-10T23:54:48.617Z,13.27
2018-02-10T23:57:14.844Z,12.93
2018-02-10T23:59:41.067Z,12.87
